sensor_id;sensor_type;location;lat;lon;timestamp;P1;durP1;ratioP1;P2;durP2;ratioP2
64011;SDS011;50211;52.768;12.124;2023-04-22T00:01:14;7.23;;;4.20;;
64011;SDS011;50211;52.768;12.124;2023-04-22T00:03:39;5.67;;;3.87;;
64011;SDS011;50211;52.768;12.124;2023-04-22T00:06:06;5.27;;;3.97;;
64011;SDS011;50211;52.768;12.124;2023-04-22T00:08:31;9.80;;;4.10;;
64011;SDS011;50211;52.768;12.124;2023-04-22T00:10:57;5.73;;;3.90;;
64011;SDS011;50211;52.768;12.124;2023-04-22T00:13:22;9.43;;;4.20;;
64011;SDS011;50211;52.768;12.124;2023-04-22T00:15:48;7.40;;;4.17;;
64011;SDS011;50211;52.768;12.124;2023-04-22T00:18:13;6.50;;;4.10;;
64011;SDS011;50211;52.768;12.124;2023-04-22T00:20:40;7.73;;;4.30;;
64011;SDS011;50211;52.768;12.124;2023-04-22T00:23:07;7.10;;;3.83;;
64011;SDS011;50211;52.768;12.124;2023-04-22T00:25:33;9.63;;;4.70;;
64011;SDS011;50211;52.768;12.124;2023-04-22T00:27:59;5.70;;;3.93;;
64011;SDS011;50211;52.768;12.124;2023-04-22T00:30:25;5.30;;;3.63;;
64011;SDS011;50211;52.768;12.124;2023-04-22T00:32:50;6.67;;;3.87;;
64011;SDS011;50211;52.768;12.124;2023-04-22T00:35:16;6.23;;;4.43;;
64011;SDS011;50211;52.768;12.124;2023-04-22T00:37:42;6.67;;;4.47;;
64011;SDS011;50211;52.768;12.124;2023-04-22T00:40:08;8.13;;;4.77;;
64011;SDS011;50211;52.768;12.124;2023-04-22T00:42:33;7.70;;;5.27;;
64011;SDS011;50211;52.768;12.124;2023-04-22T00:45:01;7.90;;;5.47;;
64011;SDS011;50211;52.768;12.124;2023-04-22T00:47:27;7.50;;;4.57;;
64011;SDS011;50211;52.768;12.124;2023-04-22T00:49:56;10.47;;;4.97;;
64011;SDS011;50211;52.768;12.124;2023-04-22T00:52:22;8.70;;;5.07;;
64011;SDS011;50211;52.768;12.124;2023-04-22T00:54:48;9.23;;;5.10;;
64011;SDS011;50211;52.768;12.124;2023-04-22T00:57:14;6.53;;;4.23;;
64011;SDS011;50211;52.768;12.124;2023-04-22T00:59:39;8.53;;;4.60;;
64011;SDS011;50211;52.768;12.124;2023-04-22T01:02:06;7.70;;;4.77;;
64011;SDS011;50211;52.768;12.124;2023-04-22T01:04:32;12.23;;;4.97;;
64011;SDS011;50211;52.768;12.124;2023-04-22T01:06:58;7.43;;;5.00;;
64011;SDS011;50211;52.768;12.124;2023-04-22T01:09:25;10.03;;;4.80;;
64011;SDS011;50211;52.768;12.124;2023-04-22T01:11:51;8.27;;;4.67;;
64011;SDS011;50211;52.768;12.124;2023-04-22T01:14:16;7.87;;;4.80;;
64011;SDS011;50211;52.768;12.124;2023-04-22T01:16:42;7.10;;;4.60;;
64011;SDS011;50211;52.768;12.124;2023-04-22T01:19:09;7.73;;;5.17;;
64011;SDS011;50211;52.768;12.124;2023-04-22T01:21:35;8.10;;;5.17;;
64011;SDS011;50211;52.768;12.124;2023-04-22T01:24:03;8.57;;;5.50;;
64011;SDS011;50211;52.768;12.124;2023-04-22T01:26:28;8.50;;;5.70;;
64011;SDS011;50211;52.768;12.124;2023-04-22T01:28:54;8.37;;;5.07;;
64011;SDS011;50211;52.768;12.124;2023-04-22T01:31:20;12.07;;;6.23;;
64011;SDS011;50211;52.768;12.124;2023-04-22T01:33:45;8.37;;;5.00;;
64011;SDS011;50211;52.768;12.124;2023-04-22T01:36:12;7.90;;;4.90;;
64011;SDS011;50211;52.768;12.124;2023-04-22T01:38:38;8.50;;;4.87;;
64011;SDS011;50211;52.768;12.124;2023-04-22T01:41:04;13.73;;;5.30;;
64011;SDS011;50211;52.768;12.124;2023-04-22T01:43:30;13.10;;;5.87;;
64011;SDS011;50211;52.768;12.124;2023-04-22T01:45:56;8.70;;;5.77;;
64011;SDS011;50211;52.768;12.124;2023-04-22T01:48:22;11.27;;;4.87;;
64011;SDS011;50211;52.768;12.124;2023-04-22T01:50:47;8.83;;;5.30;;
64011;SDS011;50211;52.768;12.124;2023-04-22T01:53:13;8.13;;;4.80;;
64011;SDS011;50211;52.768;12.124;2023-04-22T01:55:38;11.00;;;5.60;;
64011;SDS011;50211;52.768;12.124;2023-04-22T01:58:04;11.03;;;5.40;;
64011;SDS011;50211;52.768;12.124;2023-04-22T02:00:30;8.97;;;5.27;;
64011;SDS011;50211;52.768;12.124;2023-04-22T02:02:55;8.17;;;5.20;;
64011;SDS011;50211;52.768;12.124;2023-04-22T02:05:21;7.37;;;5.37;;
64011;SDS011;50211;52.768;12.124;2023-04-22T02:07:50;8.87;;;5.67;;
64011;SDS011;50211;52.768;12.124;2023-04-22T02:10:16;10.70;;;6.10;;
64011;SDS011;50211;52.768;12.124;2023-04-22T02:12:41;11.13;;;5.57;;
64011;SDS011;50211;52.768;12.124;2023-04-22T02:15:07;9.63;;;5.47;;
64011;SDS011;50211;52.768;12.124;2023-04-22T02:17:33;9.07;;;5.40;;
64011;SDS011;50211;52.768;12.124;2023-04-22T02:19:59;8.97;;;5.87;;
64011;SDS011;50211;52.768;12.124;2023-04-22T02:22:26;8.80;;;5.37;;
64011;SDS011;50211;52.768;12.124;2023-04-22T02:24:53;9.67;;;5.40;;
64011;SDS011;50211;52.768;12.124;2023-04-22T02:27:18;8.70;;;5.60;;
64011;SDS011;50211;52.768;12.124;2023-04-22T02:29:44;14.03;;;5.80;;
64011;SDS011;50211;52.768;12.124;2023-04-22T02:32:10;11.13;;;5.93;;
64011;SDS011;50211;52.768;12.124;2023-04-22T02:34:35;13.67;;;6.10;;
64011;SDS011;50211;52.768;12.124;2023-04-22T02:37:01;8.57;;;5.57;;
64011;SDS011;50211;52.768;12.124;2023-04-22T02:39:26;9.00;;;5.63;;
64011;SDS011;50211;52.768;12.124;2023-04-22T02:41:51;9.53;;;5.00;;
64011;SDS011;50211;52.768;12.124;2023-04-22T02:44:18;8.07;;;4.93;;
64011;SDS011;50211;52.768;12.124;2023-04-22T02:46:43;7.97;;;4.97;;
64011;SDS011;50211;52.768;12.124;2023-04-22T02:49:09;7.10;;;5.17;;
64011;SDS011;50211;52.768;12.124;2023-04-22T02:51:36;8.80;;;5.37;;
64011;SDS011;50211;52.768;12.124;2023-04-22T02:54:02;9.73;;;5.60;;
64011;SDS011;50211;52.768;12.124;2023-04-22T02:56:28;9.80;;;5.87;;
64011;SDS011;50211;52.768;12.124;2023-04-22T02:58:54;9.27;;;5.30;;
64011;SDS011;50211;52.768;12.124;2023-04-22T03:01:19;14.03;;;6.10;;
64011;SDS011;50211;52.768;12.124;2023-04-22T03:03:45;7.83;;;4.93;;
64011;SDS011;50211;52.768;12.124;2023-04-22T03:06:10;11.30;;;5.60;;
64011;SDS011;50211;52.768;12.124;2023-04-22T03:08:36;9.80;;;5.07;;
64011;SDS011;50211;52.768;12.124;2023-04-22T03:11:01;9.43;;;5.20;;
64011;SDS011;50211;52.768;12.124;2023-04-22T03:13:27;13.77;;;5.97;;
64011;SDS011;50211;52.768;12.124;2023-04-22T03:15:52;8.90;;;5.70;;
64011;SDS011;50211;52.768;12.124;2023-04-22T03:18:18;10.97;;;5.77;;
64011;SDS011;50211;52.768;12.124;2023-04-22T03:20:43;10.20;;;5.30;;
64011;SDS011;50211;52.768;12.124;2023-04-22T03:23:08;14.97;;;6.03;;
64011;SDS011;50211;52.768;12.124;2023-04-22T03:25:34;9.80;;;5.30;;
64011;SDS011;50211;52.768;12.124;2023-04-22T03:28:00;9.70;;;5.73;;
64011;SDS011;50211;52.768;12.124;2023-04-22T03:30:26;7.87;;;5.10;;
64011;SDS011;50211;52.768;12.124;2023-04-22T03:32:52;9.23;;;5.33;;
64011;SDS011;50211;52.768;12.124;2023-04-22T03:35:18;9.17;;;5.60;;
64011;SDS011;50211;52.768;12.124;2023-04-22T03:37:44;9.93;;;5.57;;
64011;SDS011;50211;52.768;12.124;2023-04-22T03:40:10;12.00;;;5.47;;
64011;SDS011;50211;52.768;12.124;2023-04-22T03:42:35;9.17;;;5.73;;
64011;SDS011;50211;52.768;12.124;2023-04-22T03:45:01;8.03;;;5.40;;
64011;SDS011;50211;52.768;12.124;2023-04-22T03:47:27;9.13;;;5.83;;
64011;SDS011;50211;52.768;12.124;2023-04-22T03:49:52;10.83;;;6.30;;
64011;SDS011;50211;52.768;12.124;2023-04-22T03:52:17;12.83;;;5.23;;
64011;SDS011;50211;52.768;12.124;2023-04-22T03:54:43;10.10;;;5.50;;
64011;SDS011;50211;52.768;12.124;2023-04-22T03:57:08;8.70;;;5.00;;
64011;SDS011;50211;52.768;12.124;2023-04-22T03:59:34;9.83;;;6.10;;
64011;SDS011;50211;52.768;12.124;2023-04-22T04:01:59;13.13;;;6.13;;
64011;SDS011;50211;52.768;12.124;2023-04-22T04:04:25;11.87;;;5.87;;
64011;SDS011;50211;52.768;12.124;2023-04-22T04:06:53;10.70;;;5.90;;
64011;SDS011;50211;52.768;12.124;2023-04-22T04:09:19;9.67;;;6.43;;
64011;SDS011;50211;52.768;12.124;2023-04-22T04:11:44;8.80;;;5.93;;
64011;SDS011;50211;52.768;12.124;2023-04-22T04:14:10;13.43;;;6.67;;
64011;SDS011;50211;52.768;12.124;2023-04-22T04:16:35;11.67;;;6.17;;
64011;SDS011;50211;52.768;12.124;2023-04-22T04:19:01;14.27;;;6.67;;
64011;SDS011;50211;52.768;12.124;2023-04-22T04:21:27;11.90;;;6.40;;
64011;SDS011;50211;52.768;12.124;2023-04-22T04:23:53;11.67;;;6.90;;
64011;SDS011;50211;52.768;12.124;2023-04-22T04:26:18;11.60;;;6.33;;
64011;SDS011;50211;52.768;12.124;2023-04-22T04:28:44;9.67;;;5.90;;
64011;SDS011;50211;52.768;12.124;2023-04-22T04:31:11;11.43;;;6.80;;
64011;SDS011;50211;52.768;12.124;2023-04-22T04:33:36;11.20;;;6.80;;
64011;SDS011;50211;52.768;12.124;2023-04-22T04:36:03;12.60;;;6.60;;
64011;SDS011;50211;52.768;12.124;2023-04-22T04:38:29;25.90;;;7.63;;
64011;SDS011;50211;52.768;12.124;2023-04-22T04:40:55;10.10;;;6.20;;
64011;SDS011;50211;52.768;12.124;2023-04-22T04:43:20;13.87;;;6.80;;
64011;SDS011;50211;52.768;12.124;2023-04-22T04:45:49;11.63;;;7.03;;
64011;SDS011;50211;52.768;12.124;2023-04-22T04:48:15;10.27;;;6.53;;
64011;SDS011;50211;52.768;12.124;2023-04-22T04:50:44;10.20;;;6.37;;
64011;SDS011;50211;52.768;12.124;2023-04-22T04:53:10;14.57;;;6.90;;
64011;SDS011;50211;52.768;12.124;2023-04-22T04:55:36;9.17;;;5.77;;
64011;SDS011;50211;52.768;12.124;2023-04-22T04:58:02;11.10;;;6.30;;
64011;SDS011;50211;52.768;12.124;2023-04-22T05:00:28;12.07;;;6.57;;
64011;SDS011;50211;52.768;12.124;2023-04-22T05:02:54;10.70;;;6.30;;
64011;SDS011;50211;52.768;12.124;2023-04-22T05:05:19;10.47;;;6.60;;
64011;SDS011;50211;52.768;12.124;2023-04-22T05:07:45;11.90;;;7.50;;
64011;SDS011;50211;52.768;12.124;2023-04-22T05:10:10;12.70;;;6.40;;
64011;SDS011;50211;52.768;12.124;2023-04-22T05:12:36;21.07;;;7.83;;
64011;SDS011;50211;52.768;12.124;2023-04-22T05:15:02;12.03;;;6.73;;
64011;SDS011;50211;52.768;12.124;2023-04-22T05:17:28;13.23;;;7.27;;
64011;SDS011;50211;52.768;12.124;2023-04-22T05:19:54;13.83;;;6.90;;
64011;SDS011;50211;52.768;12.124;2023-04-22T05:22:20;11.70;;;7.30;;
64011;SDS011;50211;52.768;12.124;2023-04-22T05:24:45;10.80;;;6.87;;
64011;SDS011;50211;52.768;12.124;2023-04-22T05:27:11;14.50;;;7.67;;
64011;SDS011;50211;52.768;12.124;2023-04-22T05:29:37;12.17;;;6.50;;
64011;SDS011;50211;52.768;12.124;2023-04-22T05:32:02;15.93;;;7.37;;
64011;SDS011;50211;52.768;12.124;2023-04-22T05:34:28;12.07;;;8.10;;
64011;SDS011;50211;52.768;12.124;2023-04-22T05:36:53;15.90;;;8.20;;
64011;SDS011;50211;52.768;12.124;2023-04-22T05:39:19;12.83;;;7.23;;
64011;SDS011;50211;52.768;12.124;2023-04-22T05:41:44;10.60;;;7.33;;
64011;SDS011;50211;52.768;12.124;2023-04-22T05:44:10;13.97;;;7.20;;
64011;SDS011;50211;52.768;12.124;2023-04-22T05:46:35;10.03;;;6.57;;
64011;SDS011;50211;52.768;12.124;2023-04-22T05:49:01;11.73;;;7.07;;
64011;SDS011;50211;52.768;12.124;2023-04-22T05:51:26;11.53;;;7.70;;
64011;SDS011;50211;52.768;12.124;2023-04-22T05:53:52;11.50;;;7.77;;
64011;SDS011;50211;52.768;12.124;2023-04-22T05:56:18;15.03;;;7.77;;
64011;SDS011;50211;52.768;12.124;2023-04-22T05:58:45;10.80;;;7.13;;
64011;SDS011;50211;52.768;12.124;2023-04-22T06:01:10;15.37;;;8.00;;
64011;SDS011;50211;52.768;12.124;2023-04-22T06:03:36;13.53;;;8.20;;
64011;SDS011;50211;52.768;12.124;2023-04-22T06:06:01;17.20;;;8.27;;
64011;SDS011;50211;52.768;12.124;2023-04-22T06:08:28;13.00;;;7.30;;
64011;SDS011;50211;52.768;12.124;2023-04-22T06:10:55;12.20;;;6.93;;
64011;SDS011;50211;52.768;12.124;2023-04-22T06:13:20;11.33;;;6.37;;
64011;SDS011;50211;52.768;12.124;2023-04-22T06:15:46;11.17;;;6.37;;
64011;SDS011;50211;52.768;12.124;2023-04-22T06:18:11;12.87;;;7.13;;
64011;SDS011;50211;52.768;12.124;2023-04-22T06:20:37;12.00;;;6.93;;
64011;SDS011;50211;52.768;12.124;2023-04-22T06:23:03;18.73;;;7.20;;
64011;SDS011;50211;52.768;12.124;2023-04-22T06:25:29;20.23;;;7.80;;
64011;SDS011;50211;52.768;12.124;2023-04-22T06:27:57;14.93;;;6.53;;
64011;SDS011;50211;52.768;12.124;2023-04-22T06:30:23;12.57;;;7.20;;
64011;SDS011;50211;52.768;12.124;2023-04-22T06:32:50;11.63;;;7.17;;
64011;SDS011;50211;52.768;12.124;2023-04-22T06:35:16;13.37;;;6.70;;
64011;SDS011;50211;52.768;12.124;2023-04-22T06:37:42;13.97;;;7.13;;
64011;SDS011;50211;52.768;12.124;2023-04-22T06:40:07;17.43;;;8.07;;
64011;SDS011;50211;52.768;12.124;2023-04-22T06:42:33;13.80;;;7.07;;
64011;SDS011;50211;52.768;12.124;2023-04-22T06:44:59;14.55;;;7.00;;
64011;SDS011;50211;52.768;12.124;2023-04-22T06:47:25;13.90;;;7.57;;
64011;SDS011;50211;52.768;12.124;2023-04-22T06:49:50;15.90;;;7.37;;
64011;SDS011;50211;52.768;12.124;2023-04-22T06:52:16;11.73;;;7.60;;
64011;SDS011;50211;52.768;12.124;2023-04-22T06:54:41;14.40;;;8.17;;
64011;SDS011;50211;52.768;12.124;2023-04-22T06:57:07;19.48;;;6.35;;
64011;SDS011;50211;52.768;12.124;2023-04-22T06:59:32;10.63;;;7.05;;
64011;SDS011;50211;52.768;12.124;2023-04-22T07:01:58;10.18;;;6.68;;
64011;SDS011;50211;52.768;12.124;2023-04-22T07:04:23;11.13;;;6.63;;
64011;SDS011;50211;52.768;12.124;2023-04-22T07:06:51;15.77;;;6.97;;
64011;SDS011;50211;52.768;12.124;2023-04-22T07:09:17;16.35;;;7.57;;
64011;SDS011;50211;52.768;12.124;2023-04-22T07:11:42;10.23;;;6.90;;
64011;SDS011;50211;52.768;12.124;2023-04-22T07:14:08;14.13;;;7.32;;
64011;SDS011;50211;52.768;12.124;2023-04-22T07:16:33;25.48;;;7.20;;
64011;SDS011;50211;52.768;12.124;2023-04-22T07:18:59;10.68;;;6.82;;
64011;SDS011;50211;52.768;12.124;2023-04-22T07:21:24;26.15;;;7.38;;
64011;SDS011;50211;52.768;12.124;2023-04-22T07:23:50;24.85;;;7.97;;
64011;SDS011;50211;52.768;12.124;2023-04-22T07:26:15;14.25;;;7.20;;
64011;SDS011;50211;52.768;12.124;2023-04-22T07:28:41;21.77;;;7.97;;
64011;SDS011;50211;52.768;12.124;2023-04-22T07:31:07;10.63;;;6.80;;
64011;SDS011;50211;52.768;12.124;2023-04-22T07:33:32;10.25;;;7.15;;
64011;SDS011;50211;52.768;12.124;2023-04-22T07:35:57;14.73;;;6.85;;
64011;SDS011;50211;52.768;12.124;2023-04-22T07:38:23;11.40;;;7.03;;
64011;SDS011;50211;52.768;12.124;2023-04-22T07:40:49;10.63;;;6.82;;
64011;SDS011;50211;52.768;12.124;2023-04-22T07:43:15;38.33;;;7.75;;
64011;SDS011;50211;52.768;12.124;2023-04-22T07:45:41;15.95;;;7.60;;
64011;SDS011;50211;52.768;12.124;2023-04-22T07:48:06;26.77;;;6.90;;
64011;SDS011;50211;52.768;12.124;2023-04-22T07:50:32;18.73;;;7.35;;
64011;SDS011;50211;52.768;12.124;2023-04-22T07:52:57;11.10;;;6.75;;
64011;SDS011;50211;52.768;12.124;2023-04-22T07:55:23;10.13;;;6.95;;
64011;SDS011;50211;52.768;12.124;2023-04-22T07:57:48;16.65;;;6.88;;
64011;SDS011;50211;52.768;12.124;2023-04-22T08:00:14;10.98;;;7.15;;
64011;SDS011;50211;52.768;12.124;2023-04-22T08:02:39;10.75;;;6.57;;
64011;SDS011;50211;52.768;12.124;2023-04-22T08:05:05;19.75;;;7.10;;
64011;SDS011;50211;52.768;12.124;2023-04-22T08:07:31;9.70;;;6.53;;
64011;SDS011;50211;52.768;12.124;2023-04-22T08:09:57;11.10;;;6.80;;
64011;SDS011;50211;52.768;12.124;2023-04-22T08:12:22;13.20;;;7.07;;
64011;SDS011;50211;52.768;12.124;2023-04-22T08:14:48;10.65;;;6.15;;
64011;SDS011;50211;52.768;12.124;2023-04-22T08:17:13;13.77;;;7.50;;
64011;SDS011;50211;52.768;12.124;2023-04-22T08:19:39;10.23;;;6.50;;
64011;SDS011;50211;52.768;12.124;2023-04-22T08:22:05;7.30;;;6.03;;
64011;SDS011;50211;52.768;12.124;2023-04-22T08:24:31;12.77;;;7.10;;
64011;SDS011;50211;52.768;12.124;2023-04-22T08:26:56;11.20;;;6.80;;
64011;SDS011;50211;52.768;12.124;2023-04-22T08:29:22;10.60;;;6.65;;
64011;SDS011;50211;52.768;12.124;2023-04-22T08:31:47;10.63;;;6.82;;
64011;SDS011;50211;52.768;12.124;2023-04-22T08:34:13;17.77;;;6.72;;
64011;SDS011;50211;52.768;12.124;2023-04-22T08:36:38;13.32;;;6.43;;
64011;SDS011;50211;52.768;12.124;2023-04-22T08:39:04;10.57;;;6.80;;
64011;SDS011;50211;52.768;12.124;2023-04-22T08:41:30;9.43;;;5.32;;
64011;SDS011;50211;52.768;12.124;2023-04-22T08:43:59;10.93;;;6.25;;
64011;SDS011;50211;52.768;12.124;2023-04-22T08:46:25;10.15;;;6.22;;
64011;SDS011;50211;52.768;12.124;2023-04-22T08:48:52;9.90;;;5.97;;
64011;SDS011;50211;52.768;12.124;2023-04-22T08:51:18;11.40;;;6.78;;
64011;SDS011;50211;52.768;12.124;2023-04-22T08:53:44;9.10;;;5.60;;
64011;SDS011;50211;52.768;12.124;2023-04-22T08:56:11;8.23;;;5.55;;
64011;SDS011;50211;52.768;12.124;2023-04-22T08:58:37;10.45;;;4.95;;
64011;SDS011;50211;52.768;12.124;2023-04-22T09:01:05;10.50;;;5.25;;
64011;SDS011;50211;52.768;12.124;2023-04-22T09:03:32;13.68;;;5.50;;
64011;SDS011;50211;52.768;12.124;2023-04-22T09:05:59;9.50;;;5.28;;
64011;SDS011;50211;52.768;12.124;2023-04-22T09:08:27;8.43;;;5.72;;
64011;SDS011;50211;52.768;12.124;2023-04-22T09:10:53;9.52;;;5.35;;
64011;SDS011;50211;52.768;12.124;2023-04-22T09:13:19;6.72;;;4.45;;
64011;SDS011;50211;52.768;12.124;2023-04-22T09:15:46;6.97;;;5.03;;
64011;SDS011;50211;52.768;12.124;2023-04-22T09:18:15;8.73;;;5.22;;
64011;SDS011;50211;52.768;12.124;2023-04-22T09:20:42;10.65;;;5.65;;
64011;SDS011;50211;52.768;12.124;2023-04-22T09:23:10;11.13;;;5.57;;
64011;SDS011;50211;52.768;12.124;2023-04-22T09:25:36;13.43;;;5.15;;
64011;SDS011;50211;52.768;12.124;2023-04-22T09:28:02;7.70;;;4.88;;
64011;SDS011;50211;52.768;12.124;2023-04-22T09:30:32;7.68;;;5.25;;
64011;SDS011;50211;52.768;12.124;2023-04-22T09:32:59;15.05;;;4.88;;
64011;SDS011;50211;52.768;12.124;2023-04-22T09:35:32;8.40;;;4.43;;
64011;SDS011;50211;52.768;12.124;2023-04-22T09:38:05;13.05;;;5.07;;
64011;SDS011;50211;52.768;12.124;2023-04-22T09:40:32;6.15;;;4.68;;
64011;SDS011;50211;52.768;12.124;2023-04-22T09:43:02;10.23;;;4.32;;
64011;SDS011;50211;52.768;12.124;2023-04-22T09:45:32;8.02;;;5.05;;
64011;SDS011;50211;52.768;12.124;2023-04-22T09:48:23;13.35;;;5.18;;
64011;SDS011;50211;52.768;12.124;2023-04-22T09:50:49;12.45;;;5.07;;
64011;SDS011;50211;52.768;12.124;2023-04-22T09:53:16;8.40;;;4.75;;
64011;SDS011;50211;52.768;12.124;2023-04-22T09:55:44;9.25;;;4.28;;
64011;SDS011;50211;52.768;12.124;2023-04-22T09:58:12;16.13;;;4.93;;
64011;SDS011;50211;52.768;12.124;2023-04-22T10:00:57;7.50;;;4.20;;
64011;SDS011;50211;52.768;12.124;2023-04-22T10:03:23;10.63;;;4.70;;
64011;SDS011;50211;52.768;12.124;2023-04-22T10:05:48;8.73;;;4.30;;
64011;SDS011;50211;52.768;12.124;2023-04-22T10:08:14;14.77;;;4.68;;
64011;SDS011;50211;52.768;12.124;2023-04-22T10:10:40;9.27;;;4.25;;
64011;SDS011;50211;52.768;12.124;2023-04-22T10:13:07;17.20;;;3.53;;
64011;SDS011;50211;52.768;12.124;2023-04-22T10:15:33;5.57;;;3.28;;
64011;SDS011;50211;52.768;12.124;2023-04-22T10:18:00;7.00;;;2.95;;
64011;SDS011;50211;52.768;12.124;2023-04-22T10:20:28;8.30;;;3.10;;
64011;SDS011;50211;52.768;12.124;2023-04-22T10:22:56;6.60;;;3.58;;
64011;SDS011;50211;52.768;12.124;2023-04-22T10:25:22;9.52;;;3.30;;
64011;SDS011;50211;52.768;12.124;2023-04-22T10:27:53;9.80;;;3.20;;
64011;SDS011;50211;52.768;12.124;2023-04-22T10:30:26;6.38;;;3.30;;
64011;SDS011;50211;52.768;12.124;2023-04-22T10:32:53;8.38;;;3.25;;
64011;SDS011;50211;52.768;12.124;2023-04-22T10:35:19;6.57;;;2.85;;
64011;SDS011;50211;52.768;12.124;2023-04-22T10:37:52;11.73;;;3.30;;
64011;SDS011;50211;52.768;12.124;2023-04-22T10:40:17;12.07;;;3.40;;
64011;SDS011;50211;52.768;12.124;2023-04-22T10:42:48;4.72;;;3.20;;
64011;SDS011;50211;52.768;12.124;2023-04-22T10:45:15;8.85;;;3.38;;
64011;SDS011;50211;52.768;12.124;2023-04-22T10:47:41;8.77;;;3.50;;
64011;SDS011;50211;52.768;12.124;2023-04-22T10:50:20;6.00;;;2.95;;
64011;SDS011;50211;52.768;12.124;2023-04-22T10:52:57;5.25;;;2.95;;
64011;SDS011;50211;52.768;12.124;2023-04-22T10:55:25;3.75;;;3.13;;
64011;SDS011;50211;52.768;12.124;2023-04-22T10:58:23;5.68;;;3.20;;
64011;SDS011;50211;52.768;12.124;2023-04-22T11:00:51;5.68;;;3.00;;
64011;SDS011;50211;52.768;12.124;2023-04-22T11:03:24;7.22;;;2.63;;
64011;SDS011;50211;52.768;12.124;2023-04-22T11:06:12;4.28;;;2.83;;
64011;SDS011;50211;52.768;12.124;2023-04-22T11:08:43;10.18;;;3.40;;
64011;SDS011;50211;52.768;12.124;2023-04-22T11:11:13;18.23;;;4.68;;
64011;SDS011;50211;52.768;12.124;2023-04-22T11:13:41;6.63;;;4.35;;
64011;SDS011;50211;52.768;12.124;2023-04-22T11:16:11;8.70;;;4.63;;
64011;SDS011;50211;52.768;12.124;2023-04-22T11:18:36;10.38;;;4.05;;
64011;SDS011;50211;52.768;12.124;2023-04-22T11:21:03;9.90;;;3.58;;
64011;SDS011;50211;52.768;12.124;2023-04-22T11:23:33;10.43;;;3.30;;
64011;SDS011;50211;52.768;12.124;2023-04-22T11:26:00;12.15;;;4.47;;
64011;SDS011;50211;52.768;12.124;2023-04-22T11:28:27;10.15;;;4.20;;
64011;SDS011;50211;52.768;12.124;2023-04-22T11:31:00;7.03;;;4.10;;
64011;SDS011;50211;52.768;12.124;2023-04-22T11:33:27;8.77;;;4.60;;
64011;SDS011;50211;52.768;12.124;2023-04-22T11:35:52;7.72;;;4.65;;
64011;SDS011;50211;52.768;12.124;2023-04-22T11:38:19;7.80;;;4.00;;
64011;SDS011;50211;52.768;12.124;2023-04-22T11:40:44;4.93;;;3.47;;
64011;SDS011;50211;52.768;12.124;2023-04-22T11:43:10;7.13;;;3.95;;
64011;SDS011;50211;52.768;12.124;2023-04-22T11:45:36;7.82;;;4.68;;
64011;SDS011;50211;52.768;12.124;2023-04-22T11:48:04;6.68;;;4.10;;
64011;SDS011;50211;52.768;12.124;2023-04-22T11:50:32;9.27;;;3.80;;
64011;SDS011;50211;52.768;12.124;2023-04-22T11:53:00;4.97;;;3.75;;
64011;SDS011;50211;52.768;12.124;2023-04-22T11:55:28;8.05;;;4.00;;
64011;SDS011;50211;52.768;12.124;2023-04-22T11:57:57;6.88;;;3.88;;
64011;SDS011;50211;52.768;12.124;2023-04-22T12:00:42;6.90;;;3.92;;
64011;SDS011;50211;52.768;12.124;2023-04-22T12:03:14;5.30;;;3.40;;
64011;SDS011;50211;52.768;12.124;2023-04-22T12:05:43;7.75;;;3.60;;
64011;SDS011;50211;52.768;12.124;2023-04-22T12:08:19;5.35;;;3.25;;
64011;SDS011;50211;52.768;12.124;2023-04-22T12:10:47;8.88;;;3.80;;
64011;SDS011;50211;52.768;12.124;2023-04-22T12:13:22;5.20;;;3.67;;
64011;SDS011;50211;52.768;12.124;2023-04-22T12:16:00;4.75;;;3.63;;
64011;SDS011;50211;52.768;12.124;2023-04-22T12:18:35;5.75;;;3.35;;
64011;SDS011;50211;52.768;12.124;2023-04-22T12:21:11;6.25;;;3.60;;
64011;SDS011;50211;52.768;12.124;2023-04-22T12:23:51;8.73;;;3.20;;
64011;SDS011;50211;52.768;12.124;2023-04-22T12:26:19;8.73;;;3.38;;
64011;SDS011;50211;52.768;12.124;2023-04-22T12:28:46;9.98;;;3.50;;
64011;SDS011;50211;52.768;12.124;2023-04-22T12:31:13;5.85;;;3.15;;
64011;SDS011;50211;52.768;12.124;2023-04-22T12:33:41;7.95;;;3.20;;
64011;SDS011;50211;52.768;12.124;2023-04-22T12:36:07;7.28;;;3.17;;
64011;SDS011;50211;52.768;12.124;2023-04-22T12:38:32;5.15;;;2.80;;
64011;SDS011;50211;52.768;12.124;2023-04-22T12:40:58;5.63;;;2.83;;
64011;SDS011;50211;52.768;12.124;2023-04-22T12:43:24;4.45;;;2.78;;
64011;SDS011;50211;52.768;12.124;2023-04-22T12:45:50;4.95;;;2.85;;
64011;SDS011;50211;52.768;12.124;2023-04-22T12:48:15;6.07;;;2.95;;
64011;SDS011;50211;52.768;12.124;2023-04-22T12:50:41;6.20;;;2.95;;
64011;SDS011;50211;52.768;12.124;2023-04-22T12:53:07;6.00;;;3.10;;
64011;SDS011;50211;52.768;12.124;2023-04-22T12:55:32;5.75;;;3.30;;
64011;SDS011;50211;52.768;12.124;2023-04-22T12:57:59;3.92;;;2.90;;
64011;SDS011;50211;52.768;12.124;2023-04-22T13:00:24;11.70;;;3.17;;
64011;SDS011;50211;52.768;12.124;2023-04-22T13:02:50;7.10;;;3.08;;
64011;SDS011;50211;52.768;12.124;2023-04-22T13:05:16;3.85;;;3.00;;
64011;SDS011;50211;52.768;12.124;2023-04-22T13:07:43;5.22;;;2.85;;
64011;SDS011;50211;52.768;12.124;2023-04-22T13:10:10;4.53;;;2.78;;
64011;SDS011;50211;52.768;12.124;2023-04-22T13:12:38;3.50;;;3.20;;
64011;SDS011;50211;52.768;12.124;2023-04-22T13:15:04;5.75;;;2.70;;
64011;SDS011;50211;52.768;12.124;2023-04-22T13:17:30;4.90;;;3.22;;
64011;SDS011;50211;52.768;12.124;2023-04-22T13:19:57;6.10;;;2.80;;
64011;SDS011;50211;52.768;12.124;2023-04-22T13:22:23;4.53;;;3.03;;
64011;SDS011;50211;52.768;12.124;2023-04-22T13:24:49;5.80;;;2.80;;
64011;SDS011;50211;52.768;12.124;2023-04-22T13:27:14;6.30;;;3.00;;
64011;SDS011;50211;52.768;12.124;2023-04-22T13:29:40;4.35;;;2.90;;
64011;SDS011;50211;52.768;12.124;2023-04-22T13:32:06;4.82;;;3.20;;
64011;SDS011;50211;52.768;12.124;2023-04-22T13:34:32;3.40;;;3.10;;
64011;SDS011;50211;52.768;12.124;2023-04-22T13:36:58;6.50;;;3.35;;
64011;SDS011;50211;52.768;12.124;2023-04-22T13:39:24;5.72;;;3.20;;
64011;SDS011;50211;52.768;12.124;2023-04-22T13:41:50;7.80;;;3.10;;
64011;SDS011;50211;52.768;12.124;2023-04-22T13:44:15;5.97;;;3.00;;
64011;SDS011;50211;52.768;12.124;2023-04-22T13:46:41;4.65;;;3.15;;
64011;SDS011;50211;52.768;12.124;2023-04-22T13:49:07;6.45;;;2.80;;
64011;SDS011;50211;52.768;12.124;2023-04-22T13:51:33;8.25;;;3.10;;
64011;SDS011;50211;52.768;12.124;2023-04-22T13:54:01;4.85;;;3.13;;
64011;SDS011;50211;52.768;12.124;2023-04-22T13:56:27;6.57;;;3.05;;
64011;SDS011;50211;52.768;12.124;2023-04-22T13:58:53;5.53;;;3.35;;
64011;SDS011;50211;52.768;12.124;2023-04-22T14:01:19;6.53;;;2.65;;
64011;SDS011;50211;52.768;12.124;2023-04-22T14:03:45;3.47;;;2.67;;
64011;SDS011;50211;52.768;12.124;2023-04-22T14:06:11;6.45;;;2.75;;
64011;SDS011;50211;52.768;12.124;2023-04-22T14:08:37;9.48;;;3.22;;
64011;SDS011;50211;52.768;12.124;2023-04-22T14:11:03;5.13;;;2.75;;
64011;SDS011;50211;52.768;12.124;2023-04-22T14:13:30;5.65;;;2.90;;
64011;SDS011;50211;52.768;12.124;2023-04-22T14:15:55;4.95;;;2.97;;
64011;SDS011;50211;52.768;12.124;2023-04-22T14:18:21;11.48;;;3.50;;
64011;SDS011;50211;52.768;12.124;2023-04-22T14:20:47;6.50;;;3.10;;
64011;SDS011;50211;52.768;12.124;2023-04-22T14:23:13;7.03;;;2.85;;
64011;SDS011;50211;52.768;12.124;2023-04-22T14:25:39;5.47;;;2.65;;